Terminal Aerodrome Forecast
Issued by NWS Shreveport, LA

Home | Current Version | Previous Version | Text Only | Print | Product List | Glossary On
Versions: 1 2 3 4 5 6 7 8 9 10 11 12 13 14 15 16 17 18 19
016
FTUS44 KSHV 060544
TAFTXK
TAF
KTXK 060544Z 0606/0706 VRB04KT 5SM -RA BR BKN004 OVC030
      TEMPO 0606/0609 2SM -TSRA BR BKN004 OVC030CB
     FM060900 29006KT 3SM -DZ BR OVC004
     FM061600 30006KT P6SM OVC010
     FM061900 02006KT P6SM BKN025
     FM070000 04004KT P6SM BKN025=

USA.gov is the U.S. government's official web portal to all federal, state and local government web resources and services.